Time,TemperatureF,DewpointF,PressureIn,WindDirection,WindDirectionDegrees,WindSpeedMPH,WindSpeedGustMPH,Humidity,HourlyPrecipIn,Conditions,Clouds,dailyrainin,SolarRadiationWatts/m^2,SoftwareType,DateUTC
2013-02-15 00:03:00,44.5,39.7,30.19,NNE,25,0.0,0.0,83,0.00,RA,,0.00,0.0,WeatherDisplay:10.37,2013-02-15 08:03:00,
2013-02-15 00:08:00,44.4,39.9,30.19,NNE,25,0.0,0.0,84,0.00,RA,,0.00,0.0,WeatherDisplay:10.37,2013-02-15 08:08:00,
2013-02-15 00:13:00,44.3,39.8,30.19,NNE,25,0.0,0.0,84,0.00,,,0.00,0.0,WeatherDisplay:10.37,2013-02-15 08:13:00,
2013-02-15 00:18:00,44.0,39.5,30.20,NNE,25,0.0,0.0,84,0.00,,,0.00,0.0,WeatherDisplay:10.37,2013-02-15 08:18:00,
2013-02-15 00:23:00,44.0,39.5,30.19,NNE,25,0.0,0.0,84,0.00,,,0.00,0.0,WeatherDisplay:10.37,2013-02-15 08:23:00,
2013-02-15 00:28:00,44.0,39.5,30.20,NNE,25,0.0,0.0,84,0.00,,,0.00,0.0,WeatherDisplay:10.37,2013-02-15 08:28:00,
2013-02-15 00:33:00,44.0,39.8,30.19,NNE,25,0.0,0.0,85,0.00,,,0.00,0.0,WeatherDisplay:10.37,2013-02-15 08:33:00,
2013-02-15 00:38:00,43.9,39.7,30.20,NNE,26,0.0,0.0,85,0.00,,,0.00,0.0,WeatherDisplay:10.37,2013-02-15 08:38:00,
2013-02-15 00:43:00,43.8,39.6,30.19,NNE,25,0.0,0.0,85,0.00,,,0.00,0.0,WeatherDisplay:10.37,2013-02-15 08:43:00,
2013-02-15 00:48:00,43.7,39.5,30.19,NNE,25,0.0,0.0,85,0.00,,,0.00,0.0,WeatherDisplay:10.37,2013-02-15 08:48:00,
2013-02-15 00:53:00,43.5,39.3,30.19,NNE,26,0.0,0.0,85,0.00,,,0.00,0.0,WeatherDisplay:10.37,2013-02-15 08:53:00,
2013-02-15 00:58:00,43.6,39.4,30.19,NNE,25,0.0,0.0,85,0.00,,,0.00,0.0,WeatherDisplay:10.37,2013-02-15 08:58:00,
2013-02-15 01:03:00,43.4,39.2,30.19,NNE,25,0.0,0.0,85,0.00,,,0.00,0.0,WeatherDisplay:10.37,2013-02-15 09:03:00,
2013-02-15 01:08:00,43.3,39.1,30.19,NNE,25,0.0,0.0,85,0.00,,,0.00,0.0,WeatherDisplay:10.37,2013-02-15 09:08:00,
2013-02-15 01:13:00,43.3,39.4,30.19,NNE,25,0.1,1.1,86,0.00,,,0.00,0.0,WeatherDisplay:10.37,2013-02-15 09:13:00,
2013-02-15 01:18:00,43.6,39.7,30.19,NNE,26,0.0,0.0,86,0.00,,,0.00,0.0,WeatherDisplay:10.37,2013-02-15 09:18:00,
2013-02-15 01:23:00,43.5,39.6,30.19,NNE,25,0.0,0.0,86,0.00,,,0.00,0.0,WeatherDisplay:10.37,2013-02-15 09:23:00,
2013-02-15 01:28:00,43.7,39.8,30.20,NNE,26,0.0,0.0,86,0.00,,,0.00,0.0,WeatherDisplay:10.37,2013-02-15 09:28:00,
2013-02-15 01:33:00,43.8,39.9,30.20,NNE,25,0.0,0.0,86,0.00,,,0.00,0.0,WeatherDisplay:10.37,2013-02-15 09:33:00,
2013-02-15 01:38:00,43.9,40.0,30.20,NNE,25,0.0,0.0,86,0.00,,,0.00,0.0,WeatherDisplay:10.37,2013-02-15 09:38:00,
2013-02-15 01:43:00,44.0,40.4,30.20,NNE,25,0.0,0.0,87,0.00,,,0.00,0.0,WeatherDisplay:10.37,2013-02-15 09:43:00,
2013-02-15 01:48:00,43.7,39.8,30.20,NNE,25,0.0,0.0,86,0.00,,,0.00,0.0,WeatherDisplay:10.37,2013-02-15 09:48:00,
2013-02-15 01:53:00,43.2,39.3,30.20,NNE,25,0.0,0.0,86,0.00,,,0.00,0.0,WeatherDisplay:10.37,2013-02-15 09:53:00,
2013-02-15 01:59:00,43.2,39.3,30.20,NNE,25,0.0,0.0,86,0.00,,,0.00,0.0,WeatherDisplay:10.37,2013-02-15 09:59:00,
2013-02-15 02:04:00,43.1,39.2,30.20,NNE,25,0.0,0.0,86,0.00,,,0.00,0.0,WeatherDisplay:10.37,2013-02-15 10:04:00,
2013-02-15 02:09:00,43.3,39.4,30.20,NNE,25,0.0,0.0,86,0.00,,,0.00,0.0,WeatherDisplay:10.37,2013-02-15 10:09:00,
2013-02-15 02:14:00,43.5,39.9,30.20,NNE,25,0.0,0.0,87,0.00,,,0.00,0.0,WeatherDisplay:10.37,2013-02-15 10:14:00,
2013-02-15 02:19:00,43.5,39.9,30.20,NNE,26,0.0,0.0,87,0.00,,,0.00,0.0,WeatherDisplay:10.37,2013-02-15 10:19:00,
2013-02-15 02:24:00,43.4,39.5,30.20,NNE,25,0.0,0.0,86,0.00,,,0.00,0.0,WeatherDisplay:10.37,2013-02-15 10:24:00,
2013-02-15 02:29:00,43.3,39.4,30.20,NNE,25,0.0,0.0,86,0.00,,,0.00,0.0,WeatherDisplay:10.37,2013-02-15 10:29:00,
2013-02-15 02:34:00,43.0,39.4,30.20,NNE,26,0.0,0.0,87,0.00,,,0.00,0.0,WeatherDisplay:10.37,2013-02-15 10:34:00,
2013-02-15 02:39:00,42.7,39.1,30.20,NNE,26,0.0,0.0,87,0.00,,,0.00,0.0,WeatherDisplay:10.37,2013-02-15 10:39:00,
2013-02-15 02:44:00,42.6,39.0,30.19,NNE,25,0.2,2.3,87,0.00,,,0.00,0.0,WeatherDisplay:10.37,2013-02-15 10:44:00,
2013-02-15 02:49:00,42.4,38.8,30.20,NNE,25,0.0,0.0,87,0.00,,,0.00,0.0,WeatherDisplay:10.37,2013-02-15 10:49:00,
2013-02-15 02:54:00,42.3,38.7,30.20,NNE,25,0.0,0.0,87,0.00,,,0.00,0.0,WeatherDisplay:10.37,2013-02-15 10:54:00,
2013-02-15 02:59:00,42.3,38.7,30.20,NNE,25,0.0,0.0,87,0.00,,,0.00,0.0,WeatherDisplay:10.37,2013-02-15 10:59:00,
2013-02-15 03:04:00,42.2,38.6,30.20,NNE,25,0.0,0.0,87,0.00,,,0.00,0.0,WeatherDisplay:10.37,2013-02-15 11:04:00,
2013-02-15 03:09:00,42.2,38.6,30.20,NNE,26,0.0,0.0,87,0.00,,,0.00,0.0,WeatherDisplay:10.37,2013-02-15 11:09:00,
2013-02-15 03:14:00,42.1,38.5,30.20,NNE,25,0.0,0.0,87,0.00,,,0.00,0.0,WeatherDisplay:10.37,2013-02-15 11:14:00,
2013-02-15 03:19:00,42.0,38.4,30.20,NNE,25,0.0,0.0,87,0.00,,,0.00,0.0,WeatherDisplay:10.37,2013-02-15 11:19:00,
2013-02-15 03:24:00,42.0,38.4,30.20,NNE,25,0.0,0.0,87,0.00,,,0.00,0.0,WeatherDisplay:10.37,2013-02-15 11:24:00,
2013-02-15 03:29:00,42.1,38.5,30.20,NNE,25,0.0,0.0,87,0.00,,,0.00,0.0,WeatherDisplay:10.37,2013-02-15 11:29:00,
2013-02-15 03:34:00,42.6,39.3,30.20,NNE,25,0.0,0.0,88,0.00,,,0.00,0.0,WeatherDisplay:10.37,2013-02-15 11:34:00,
2013-02-15 03:39:00,42.6,39.3,30.20,NNE,25,0.0,0.0,88,0.00,,,0.00,0.0,WeatherDisplay:10.37,2013-02-15 11:39:00,
2013-02-15 03:44:00,42.2,38.6,30.20,NNE,26,0.0,0.0,87,0.00,,,0.00,0.0,WeatherDisplay:10.37,2013-02-15 11:44:00,
2013-02-15 03:49:00,41.9,38.3,30.20,NNE,25,0.9,3.5,87,0.00,,,0.00,0.0,WeatherDisplay:10.37,2013-02-15 11:49:00,
2013-02-15 03:54:00,42.0,38.7,30.20,NNE,25,0.0,0.0,88,0.00,,,0.00,0.0,WeatherDisplay:10.37,2013-02-15 11:54:00,
2013-02-15 03:59:00,41.8,38.2,30.20,NNE,25,0.0,0.0,87,0.00,,,0.00,0.0,WeatherDisplay:10.37,2013-02-15 11:59:00,
2013-02-15 04:04:00,41.6,38.0,30.20,NNE,26,0.0,0.0,87,0.00,,,0.00,0.0,WeatherDisplay:10.37,2013-02-15 12:04:00,
2013-02-15 04:09:00,41.5,37.9,30.20,NNE,26,0.0,0.0,87,0.00,,,0.00,0.0,WeatherDisplay:10.37,2013-02-15 12:09:00,
2013-02-15 04:14:00,41.5,38.2,30.20,NNE,25,0.0,0.0,88,0.00,,,0.00,0.0,WeatherDisplay:10.37,2013-02-15 12:14:00,
2013-02-15 04:19:00,41.5,38.2,30.20,NNE,25,0.2,1.1,88,0.00,,,0.00,0.0,WeatherDisplay:10.37,2013-02-15 12:19:00,
2013-02-15 04:24:00,41.5,38.2,30.21,NNE,25,0.0,0.0,88,0.00,,,0.00,0.0,WeatherDisplay:10.37,2013-02-15 12:24:00,
2013-02-15 04:29:00,41.6,38.3,30.21,NNE,25,0.0,0.0,88,0.00,,,0.00,0.0,WeatherDisplay:10.37,2013-02-15 12:29:00,
2013-02-15 04:34:00,41.6,38.3,30.21,NNE,25,0.0,0.0,88,0.00,,,0.00,0.0,WeatherDisplay:10.37,2013-02-15 12:34:00,
2013-02-15 04:39:00,41.6,38.3,30.21,NNE,25,0.0,0.0,88,0.00,,,0.00,0.0,WeatherDisplay:10.37,2013-02-15 12:39:00,
2013-02-15 04:44:00,41.4,38.1,30.21,NNE,25,0.0,0.0,88,0.00,,,0.00,0.0,WeatherDisplay:10.37,2013-02-15 12:44:00,
2013-02-15 04:49:00,41.4,38.1,30.21,NNE,25,0.0,0.0,88,0.00,,,0.00,0.0,WeatherDisplay:10.37,2013-02-15 12:49:00,
2013-02-15 04:54:00,41.3,37.7,30.21,NNE,25,3.2,3.5,87,0.00,,,0.00,0.0,WeatherDisplay:10.37,2013-02-15 12:54:00,
2013-02-15 04:59:00,41.6,38.3,30.21,NNE,25,0.6,2.3,88,0.00,,,0.00,0.0,WeatherDisplay:10.37,2013-02-15 12:59:00,
2013-02-15 05:04:00,41.4,37.8,30.21,NNE,25,0.1,1.1,87,0.00,,,0.00,0.0,WeatherDisplay:10.37,2013-02-15 13:04:00,
2013-02-15 05:09:00,41.5,37.9,30.21,NNE,25,0.1,1.0,87,0.00,,,0.00,0.0,WeatherDisplay:10.37,2013-02-15 13:09:00,
2013-02-15 05:14:00,41.6,38.0,30.21,NNE,25,1.6,2.3,87,0.00,,,0.00,0.0,WeatherDisplay:10.37,2013-02-15 13:14:00,
2013-02-15 05:19:00,41.7,38.1,30.22,NNE,25,1.6,3.5,87,0.00,,,0.00,0.0,WeatherDisplay:10.37,2013-02-15 13:19:00,
2013-02-15 05:24:00,41.6,38.0,30.22,NNE,25,0.0,0.0,87,0.00,,,0.00,0.0,WeatherDisplay:10.37,2013-02-15 13:24:00,
2013-02-15 05:29:00,41.5,37.9,30.22,NNE,25,1.8,2.3,87,0.00,,,0.00,0.0,WeatherDisplay:10.37,2013-02-15 13:29:00,
2013-02-15 05:34:00,41.6,38.0,30.22,NNE,25,0.0,0.0,87,0.00,,,0.00,0.0,WeatherDisplay:10.37,2013-02-15 13:34:00,
2013-02-15 05:39:00,41.5,37.6,30.22,NNE,25,0.0,0.0,86,0.00,,,0.00,0.0,WeatherDisplay:10.37,2013-02-15 13:39:00,
2013-02-15 05:44:00,41.2,37.3,30.22,NNE,25,0.7,1.1,86,0.00,,,0.00,0.0,WeatherDisplay:10.37,2013-02-15 13:44:00,
2013-02-15 05:49:00,41.3,37.4,30.22,NNE,25,0.0,0.0,86,0.00,,,0.00,0.0,WeatherDisplay:10.37,2013-02-15 13:49:00,
2013-02-15 05:54:00,41.6,38.0,30.22,NNE,21,0.7,4.6,87,0.00,,,0.00,0.0,WeatherDisplay:10.37,2013-02-15 13:54:00,
2013-02-15 05:59:00,41.9,38.0,30.22,NNE,19,0.0,0.0,86,0.00,,,0.00,0.0,WeatherDisplay:10.37,2013-02-15 13:59:00,
2013-02-15 06:04:00,41.9,38.0,30.22,NNE,20,0.8,3.5,86,0.00,,,0.00,0.0,WeatherDisplay:10.37,2013-02-15 14:04:00,
2013-02-15 06:09:00,41.9,38.0,30.22,NNE,20,0.0,0.0,86,0.00,,,0.00,0.0,WeatherDisplay:10.37,2013-02-15 14:09:00,
2013-02-15 06:14:00,42.0,37.8,30.22,NNE,21,0.2,1.1,85,0.00,,,0.00,0.0,WeatherDisplay:10.37,2013-02-15 14:14:00,
2013-02-15 06:19:00,42.0,37.8,30.22,NNE,19,0.0,0.0,85,0.00,,,0.00,0.0,WeatherDisplay:10.37,2013-02-15 14:19:00,
2013-02-15 06:24:00,41.9,37.7,30.22,NNE,20,0.4,3.5,85,0.00,,,0.00,0.0,WeatherDisplay:10.37,2013-02-15 14:24:00,
2013-02-15 06:29:00,42.1,37.9,30.22,NNE,20,0.0,0.0,85,0.00,,,0.00,0.0,WeatherDisplay:10.37,2013-02-15 14:29:00,
2013-02-15 06:34:00,42.0,37.8,30.22,NNE,19,2.2,4.0,85,0.00,,,0.00,0.0,WeatherDisplay:10.37,2013-02-15 14:34:00,
2013-02-15 06:39:00,42.3,38.1,30.22,NNE,17,0.0,0.0,85,0.00,,,0.00,0.0,WeatherDisplay:10.37,2013-02-15 14:39:00,
2013-02-15 06:44:00,42.1,37.6,30.22,NNE,17,1.6,3.5,84,0.00,,,0.00,0.0,WeatherDisplay:10.37,2013-02-15 14:44:00,
2013-02-15 06:49:00,41.8,37.3,30.22,NNE,17,2.1,3.5,84,0.00,,,0.00,0.0,WeatherDisplay:10.37,2013-02-15 14:49:00,
2013-02-15 06:54:00,41.7,37.2,30.22,NNE,13,0.0,0.0,84,0.00,,,0.00,0.0,WeatherDisplay:10.37,2013-02-15 14:54:00,
2013-02-15 06:59:00,41.7,37.2,30.22,NNE,13,0.0,1.1,84,0.00,,,0.00,0.0,WeatherDisplay:10.37,2013-02-15 14:59:00,
2013-02-15 07:04:00,41.6,37.1,30.23,NNE,13,0.0,0.0,84,0.00,,,0.00,5.0,WeatherDisplay:10.37,2013-02-15 15:04:00,
2013-02-15 07:09:00,41.6,37.1,30.23,NNE,13,0.1,2.3,84,0.00,,,0.00,11.0,WeatherDisplay:10.37,2013-02-15 15:09:00,
2013-02-15 07:14:00,41.7,37.2,30.23,NNE,13,0.0,2.3,84,0.00,,,0.00,12.0,WeatherDisplay:10.37,2013-02-15 15:14:00,
2013-02-15 07:19:00,41.9,37.4,30.23,NNE,13,0.0,0.0,84,0.00,,,0.00,16.0,WeatherDisplay:10.37,2013-02-15 15:19:00,
2013-02-15 07:24:00,42.1,37.6,30.23,NNE,13,1.8,2.3,84,0.00,,,0.00,19.0,WeatherDisplay:10.37,2013-02-15 15:24:00,
2013-02-15 07:29:00,42.6,37.8,30.24,North,11,0.2,3.5,83,0.00,,,0.00,30.0,WeatherDisplay:10.37,2013-02-15 15:29:00,
2013-02-15 07:34:00,43.0,38.2,30.24,NNE,12,0.0,0.0,83,0.00,,,0.00,42.0,WeatherDisplay:10.37,2013-02-15 15:34:00,
2013-02-15 07:39:00,43.3,38.2,30.24,NNE,12,0.1,1.1,82,0.00,CLR,,0.00,62.0,WeatherDisplay:10.37,2013-02-15 15:39:00,
2013-02-15 07:44:00,43.8,38.7,30.24,NNE,12,0.0,0.0,82,0.00,CLR,,0.00,79.0,WeatherDisplay:10.37,2013-02-15 15:44:00,
2013-02-15 07:49:00,44.3,38.8,30.24,NNE,12,0.0,1.1,81,0.00,CLR,,0.00,95.0,WeatherDisplay:10.37,2013-02-15 15:49:00,
2013-02-15 07:54:00,44.8,39.3,30.24,North,11,0.6,1.1,81,0.00,CLR,,0.00,109.0,WeatherDisplay:10.37,2013-02-15 15:54:00,
2013-02-15 07:59:00,45.3,39.5,30.24,NNE,12,0.1,2.3,80,0.00,CLR,,0.00,125.0,WeatherDisplay:10.37,2013-02-15 15:59:00,
2013-02-15 08:04:00,46.0,39.9,30.24,North,11,0.0,1.1,79,0.00,CLR,,0.00,151.0,WeatherDisplay:10.37,2013-02-15 16:04:00,
2013-02-15 08:09:00,46.1,39.6,30.24,North,11,2.6,3.5,78,0.00,CLR,,0.00,146.0,WeatherDisplay:10.37,2013-02-15 16:09:00,
2013-02-15 08:14:00,46.6,40.1,30.25,North,5,1.2,2.0,78,0.00,CLR,,0.00,185.0,WeatherDisplay:10.37,2013-02-15 16:14:00,
2013-02-15 08:19:00,47.4,40.2,30.25,North,360,1.4,3.5,76,0.00,CLR,,0.00,202.0,WeatherDisplay:10.37,2013-02-15 16:19:00,
2013-02-15 08:24:00,47.8,40.3,30.25,North,5,0.8,2.3,75,0.00,CLR,,0.00,218.0,WeatherDisplay:10.37,2013-02-15 16:24:00,
2013-02-15 08:29:00,48.6,40.7,30.25,North,5,0.1,3.5,74,0.00,CLR,,0.00,239.0,WeatherDisplay:10.37,2013-02-15 16:29:00,
2013-02-15 08:34:00,49.9,41.6,30.25,North,5,0.0,1.1,73,0.00,CLR,,0.00,257.0,WeatherDisplay:10.37,2013-02-15 16:34:00,
2013-02-15 08:39:00,51.0,42.3,30.25,North,5,0.1,1.1,72,0.00,CLR,,0.00,271.0,WeatherDisplay:10.37,2013-02-15 16:39:00,
2013-02-15 08:44:00,51.6,41.4,30.25,North,360,1.0,3.5,68,0.00,CLR,,0.00,290.0,WeatherDisplay:10.37,2013-02-15 16:44:00,
2013-02-15 08:49:00,52.1,41.9,30.25,North,5,0.2,1.1,68,0.00,CLR,,0.00,308.0,WeatherDisplay:10.37,2013-02-15 16:49:00,
2013-02-15 08:54:00,53.6,43.7,30.25,North,5,0.0,0.0,69,0.00,CLR,,0.00,332.0,WeatherDisplay:10.37,2013-02-15 16:54:00,
2013-02-15 08:59:00,55.0,41.8,30.25,North,5,2.1,3.5,61,0.00,CLR,,0.00,350.0,WeatherDisplay:10.37,2013-02-15 16:59:00,
2013-02-15 09:04:00,55.0,42.6,30.25,North,5,2.8,3.5,63,0.00,CLR,,0.00,366.0,WeatherDisplay:10.37,2013-02-15 17:04:00,
2013-02-15 09:09:00,55.8,43.4,30.25,North,5,0.7,2.0,63,0.00,CLR,,0.00,383.0,WeatherDisplay:10.37,2013-02-15 17:09:00,
2013-02-15 09:14:00,56.4,44.0,30.25,North,5,0.1,1.1,63,0.00,CLR,,0.00,403.0,WeatherDisplay:10.37,2013-02-15 17:14:00,
2013-02-15 09:19:00,57.0,41.0,30.25,North,360,1.7,3.5,55,0.00,CLR,,0.00,413.0,WeatherDisplay:10.37,2013-02-15 17:19:00,
2013-02-15 09:24:00,58.7,41.6,30.25,North,5,0.8,1.1,53,0.00,CLR,,0.00,429.0,WeatherDisplay:10.37,2013-02-15 17:24:00,
2013-02-15 09:29:00,59.5,40.3,30.25,North,5,0.8,2.3,49,0.00,CLR,,0.00,446.0,WeatherDisplay:10.37,2013-02-15 17:29:00,
2013-02-15 09:34:00,59.6,40.4,30.25,North,5,0.2,1.1,49,0.00,CLR,,0.00,457.0,WeatherDisplay:10.37,2013-02-15 17:34:00,
2013-02-15 09:39:00,60.2,39.9,30.25,North,5,1.2,2.0,47,0.00,CLR,,0.00,475.0,WeatherDisplay:10.37,2013-02-15 17:39:00,
2013-02-15 09:44:00,60.6,40.2,30.25,North,360,0.1,1.1,47,0.00,CLR,,0.00,489.0,WeatherDisplay:10.37,2013-02-15 17:44:00,
2013-02-15 09:49:00,60.9,39.4,30.25,North,5,0.4,3.5,45,0.00,CLR,,0.00,501.0,WeatherDisplay:10.37,2013-02-15 17:49:00,
2013-02-15 09:54:00,61.5,39.9,30.25,North,360,0.6,3.5,45,0.00,CLR,,0.00,513.0,WeatherDisplay:10.37,2013-02-15 17:54:00,
2013-02-15 09:59:00,61.6,40.0,30.25,North,360,1.0,2.3,45,0.00,CLR,,0.00,526.0,WeatherDisplay:10.37,2013-02-15 17:59:00,
2013-02-15 10:04:00,62.1,38.7,30.25,North,5,1.1,1.1,42,0.00,CLR,,0.00,541.0,WeatherDisplay:10.37,2013-02-15 18:04:00,
2013-02-15 10:09:00,62.5,38.5,30.25,North,360,1.1,3.5,41,0.00,CLR,,0.00,554.0,WeatherDisplay:10.37,2013-02-15 18:09:00,
2013-02-15 10:14:00,62.3,37.0,30.25,North,5,1.1,4.6,39,0.00,CLR,,0.00,563.0,WeatherDisplay:10.37,2013-02-15 18:14:00,
2013-02-15 10:19:00,62.4,37.7,30.25,NNE,14,3.0,4.6,40,0.00,CLR,,0.00,575.0,WeatherDisplay:10.37,2013-02-15 18:19:00,
2013-02-15 10:24:00,62.6,37.9,30.25,NNE,14,1.5,3.5,40,0.00,CLR,,0.00,589.0,WeatherDisplay:10.37,2013-02-15 18:24:00,
2013-02-15 10:29:00,62.5,37.8,30.25,NNE,17,1.7,3.5,40,0.00,CLR,,0.00,599.0,WeatherDisplay:10.37,2013-02-15 18:29:00,
2013-02-15 10:34:00,63.9,37.1,30.25,NNE,18,2.7,3.5,37,0.00,CLR,,0.00,608.0,WeatherDisplay:10.37,2013-02-15 18:34:00,
2013-02-15 10:39:00,63.7,36.9,30.25,NNE,29,1.5,4.6,37,0.00,CLR,,0.00,619.0,WeatherDisplay:10.37,2013-02-15 18:39:00,
2013-02-15 10:44:00,64.0,36.5,30.25,NNE,32,4.3,5.8,36,0.00,CLR,,0.00,628.0,WeatherDisplay:10.37,2013-02-15 18:44:00,
2013-02-15 10:49:00,63.6,37.5,30.25,NE,38,1.3,3.5,38,0.00,CLR,,0.00,635.0,WeatherDisplay:10.37,2013-02-15 18:49:00,
2013-02-15 10:54:00,63.9,37.8,30.25,NNE,31,4.0,6.9,38,0.00,CLR,,0.00,647.0,WeatherDisplay:10.37,2013-02-15 18:54:00,
2013-02-15 10:59:00,63.9,37.1,30.25,NNE,22,2.9,8.1,37,0.00,CLR,,0.00,656.0,WeatherDisplay:10.37,2013-02-15 18:59:00,
2013-02-15 11:04:00,63.8,36.3,30.26,NE,40,5.3,8.1,36,0.00,CLR,,0.00,663.0,WeatherDisplay:10.37,2013-02-15 19:04:00,
2013-02-15 11:10:00,64.3,36.8,30.25,NE,40,2.2,3.5,36,0.00,CLR,,0.00,671.0,WeatherDisplay:10.37,2013-02-15 19:10:00,
2013-02-15 11:15:00,64.9,37.3,30.25,NE,41,3.4,6.0,36,0.00,CLR,,0.00,679.0,WeatherDisplay:10.37,2013-02-15 19:15:00,
2013-02-15 11:20:00,64.8,36.5,30.25,NNE,33,0.2,2.0,35,0.00,CLR,,0.00,686.0,WeatherDisplay:10.37,2013-02-15 19:20:00,
2013-02-15 11:25:00,65.0,35.9,30.25,NNE,33,2.0,3.5,34,0.00,CLR,,0.00,689.0,WeatherDisplay:10.37,2013-02-15 19:25:00,
2013-02-15 11:30:00,65.4,34.8,30.25,NNE,29,3.1,5.8,32,0.00,CLR,,0.00,696.0,WeatherDisplay:10.37,2013-02-15 19:30:00,
2013-02-15 11:35:00,65.3,34.7,30.25,NNE,32,3.1,4.6,32,0.00,CLR,,0.00,700.0,WeatherDisplay:10.37,2013-02-15 19:35:00,
2013-02-15 11:40:00,65.8,35.1,30.25,NE,34,1.4,3.0,32,0.00,CLR,,0.00,705.0,WeatherDisplay:10.37,2013-02-15 19:40:00,
2013-02-15 11:45:00,66.0,35.3,30.25,NNE,33,0.9,4.6,32,0.00,CLR,,0.00,710.0,WeatherDisplay:10.37,2013-02-15 19:45:00,
2013-02-15 11:50:00,66.5,34.9,30.25,NE,34,4.8,6.9,31,0.00,CLR,,0.00,710.0,WeatherDisplay:10.37,2013-02-15 19:50:00,
2013-02-15 11:55:00,66.7,35.1,30.25,NNE,33,3.3,4.6,31,0.00,CLR,,0.00,717.0,WeatherDisplay:10.37,2013-02-15 19:55:00,
2013-02-15 12:00:00,67.0,34.5,30.24,NNE,33,1.7,4.6,30,0.00,CLR,,0.00,721.0,WeatherDisplay:10.37,2013-02-15 20:00:00,
2013-02-15 12:05:00,67.0,35.3,30.24,NNE,33,3.5,4.6,31,0.00,CLR,,0.00,721.0,WeatherDisplay:10.37,2013-02-15 20:05:00,
2013-02-15 12:10:00,67.6,36.7,30.24,NNE,33,0.6,2.3,32,0.00,CLR,,0.00,724.0,WeatherDisplay:10.37,2013-02-15 20:10:00,
2013-02-15 12:15:00,68.5,35.8,30.24,NNE,33,2.3,3.5,30,0.00,CLR,,0.00,722.0,WeatherDisplay:10.37,2013-02-15 20:15:00,
2013-02-15 12:20:00,67.2,35.5,30.24,NNE,32,3.0,4.6,31,0.00,CLR,,0.00,722.0,WeatherDisplay:10.37,2013-02-15 20:20:00,
2013-02-15 12:25:00,66.8,35.2,30.24,NNE,28,4.4,6.9,31,0.00,CLR,,0.00,728.0,WeatherDisplay:10.37,2013-02-15 20:25:00,
2013-02-15 12:30:00,67.0,36.1,30.24,NNE,25,3.3,10.4,32,0.00,CLR,,0.00,724.0,WeatherDisplay:10.37,2013-02-15 20:30:00,
2013-02-15 12:35:00,67.0,36.1,30.23,NE,36,7.6,10.4,32,0.00,CLR,,0.00,722.0,WeatherDisplay:10.37,2013-02-15 20:35:00,
2013-02-15 12:40:00,66.7,36.7,30.23,NNE,19,2.9,6.9,33,0.00,CLR,,0.00,722.0,WeatherDisplay:10.37,2013-02-15 20:40:00,
2013-02-15 12:45:00,67.1,37.8,30.23,NNE,31,6.2,10.4,34,0.00,CLR,,0.00,722.0,WeatherDisplay:10.37,2013-02-15 20:45:00,
2013-02-15 12:50:00,66.8,36.8,30.23,NNE,18,4.8,6.9,33,0.00,CLR,,0.00,719.0,WeatherDisplay:10.37,2013-02-15 20:50:00,
2013-02-15 12:55:00,67.4,37.3,30.22,NNE,15,2.9,5.8,33,0.00,CLR,,0.00,715.0,WeatherDisplay:10.37,2013-02-15 20:55:00,
2013-02-15 13:00:00,67.6,38.2,30.22,NNE,22,5.8,8.1,34,0.00,CLR,,0.00,714.0,WeatherDisplay:10.37,2013-02-15 21:00:00,
2013-02-15 13:05:00,67.2,37.9,30.22,NE,41,4.8,8.1,34,0.00,CLR,,0.00,710.0,WeatherDisplay:10.37,2013-02-15 21:05:00,
2013-02-15 13:10:00,67.5,38.1,30.22,NE,50,6.2,10.0,34,0.00,CLR,,0.00,707.0,WeatherDisplay:10.37,2013-02-15 21:10:00,
2013-02-15 13:16:00,66.8,39.7,30.22,NNE,33,3.0,10.0,37,0.00,CLR,,0.00,701.0,WeatherDisplay:10.37,2013-02-15 21:16:00,
2013-02-15 13:21:00,67.3,38.7,30.21,NNE,23,5.2,10.4,35,0.00,CLR,,0.00,701.0,WeatherDisplay:10.37,2013-02-15 21:21:00,
2013-02-15 13:26:00,67.8,39.9,30.22,ENE,57,3.4,3.5,36,0.00,CLR,,0.00,696.0,WeatherDisplay:10.37,2013-02-15 21:26:00,
2013-02-15 13:31:00,67.7,39.8,30.21,NE,51,3.9,5.8,36,0.00,CLR,,0.00,691.0,WeatherDisplay:10.37,2013-02-15 21:31:00,
2013-02-15 13:36:00,68.2,40.2,30.21,NE,45,5.1,8.1,36,0.00,CLR,,0.00,686.0,WeatherDisplay:10.37,2013-02-15 21:36:00,
2013-02-15 13:41:00,68.8,39.3,30.21,NNE,25,3.5,5.8,34,0.00,CLR,,0.00,677.0,WeatherDisplay:10.37,2013-02-15 21:41:00,
2013-02-15 13:46:00,69.0,39.4,30.21,NNE,24,0.8,3.5,34,0.00,CLR,,0.00,673.0,WeatherDisplay:10.37,2013-02-15 21:46:00,
2013-02-15 13:51:00,68.7,38.4,30.20,North,10,3.7,8.1,33,0.00,CLR,,0.00,663.0,WeatherDisplay:10.37,2013-02-15 21:51:00,
2013-02-15 13:56:00,68.9,38.6,30.20,NNE,26,4.3,11.5,33,0.00,CLR,,0.00,654.0,WeatherDisplay:10.37,2013-02-15 21:56:00,
2013-02-15 14:01:00,68.6,38.3,30.21,NNE,30,1.3,3.5,33,0.00,CLR,,0.00,645.0,WeatherDisplay:10.37,2013-02-15 22:01:00,
2013-02-15 14:06:00,68.9,38.6,30.20,NNE,28,2.1,3.5,33,0.00,CLR,,0.00,635.0,WeatherDisplay:10.37,2013-02-15 22:06:00,
2013-02-15 14:11:00,69.3,38.9,30.20,NE,43,4.2,6.9,33,0.00,CLR,,0.00,628.0,WeatherDisplay:10.37,2013-02-15 22:11:00,
2013-02-15 14:16:00,69.2,38.9,30.20,NNE,16,5.6,10.4,33,0.00,CLR,,0.00,619.0,WeatherDisplay:10.37,2013-02-15 22:16:00,
2013-02-15 14:21:00,69.9,39.5,30.20,NNE,22,0.6,2.3,33,0.00,CLR,,0.00,606.0,WeatherDisplay:10.37,2013-02-15 22:21:00,
2013-02-15 14:26:00,69.3,38.9,30.20,NNE,29,0.3,3.5,33,0.00,CLR,,0.00,596.0,WeatherDisplay:10.37,2013-02-15 22:26:00,
2013-02-15 14:31:00,69.1,38.8,30.20,NE,44,2.5,3.5,33,0.00,CLR,,0.00,587.0,WeatherDisplay:10.37,2013-02-15 22:31:00,
2013-02-15 14:36:00,69.0,38.7,30.20,NNE,30,3.0,5.8,33,0.00,CLR,,0.00,575.0,WeatherDisplay:10.37,2013-02-15 22:36:00,
2013-02-15 14:41:00,69.1,38.0,30.20,NE,42,4.6,9.2,32,0.00,CLR,,0.00,559.0,WeatherDisplay:10.37,2013-02-15 22:41:00,
2013-02-15 14:46:00,69.0,38.7,30.20,NE,49,3.3,4.6,33,0.00,CLR,,0.00,550.0,WeatherDisplay:10.37,2013-02-15 22:46:00,
2013-02-15 14:51:00,69.0,37.9,30.20,NNE,24,3.1,3.5,32,0.00,CLR,,0.00,538.0,WeatherDisplay:10.37,2013-02-15 22:51:00,
2013-02-15 14:57:00,69.5,38.3,30.20,NNE,27,2.2,4.6,32,0.00,CLR,,0.00,526.0,WeatherDisplay:10.37,2013-02-15 22:57:00,
2013-02-15 15:02:00,69.5,39.1,30.20,NNE,32,3.9,5.8,33,0.00,CLR,,0.00,508.0,WeatherDisplay:10.37,2013-02-15 23:02:00,
2013-02-15 15:07:00,69.3,38.9,30.20,NNE,32,2.1,3.5,33,0.00,CLR,,0.00,496.0,WeatherDisplay:10.37,2013-02-15 23:07:00,
2013-02-15 15:13:00,69.7,40.1,30.19,NNE,32,2.5,4.6,34,0.00,CLR,,0.00,480.0,WeatherDisplay:10.37,2013-02-15 23:13:00,
2013-02-15 15:19:00,69.4,39.0,30.19,NNE,25,3.6,5.8,33,0.00,CLR,,0.00,443.0,WeatherDisplay:10.37,2013-02-15 23:19:00,
2013-02-15 15:24:00,69.3,38.9,30.19,NNE,25,0.6,2.3,33,0.00,FEW,,0.00,327.0,WeatherDisplay:10.37,2013-02-15 23:24:00,
2013-02-15 15:29:00,69.1,38.8,30.19,NNE,22,4.0,5.8,33,0.00,CLR,,0.00,330.0,WeatherDisplay:10.37,2013-02-15 23:29:00,
2013-02-15 15:34:00,68.6,39.1,30.19,NNE,24,3.9,5.8,34,0.00,SCT,,0.00,188.0,WeatherDisplay:10.37,2013-02-15 23:34:00,
2013-02-15 15:39:00,68.3,38.8,30.19,NNE,26,3.9,5.8,34,0.00,BKN,,0.00,81.0,WeatherDisplay:10.37,2013-02-15 23:39:00,
2013-02-15 15:44:00,68.4,38.9,30.19,NNE,25,4.6,5.8,34,0.00,BKN,,0.00,160.0,WeatherDisplay:10.37,2013-02-15 23:44:00,
2013-02-15 15:49:00,68.3,38.8,30.19,NNE,25,1.9,2.3,34,0.00,BKN,,0.00,84.0,WeatherDisplay:10.37,2013-02-15 23:49:00,
2013-02-15 15:54:00,68.2,38.7,30.19,NNE,25,2.0,3.5,34,0.00,BKN,,0.00,86.0,WeatherDisplay:10.37,2013-02-15 23:54:00,
2013-02-15 15:59:00,68.2,39.5,30.19,NNE,26,4.4,6.9,35,0.00,SCT,,0.00,181.0,WeatherDisplay:10.37,2013-02-15 23:59:00,
2013-02-15 16:04:00,68.0,39.3,30.19,NNE,27,2.6,3.5,35,0.00,BKN,,0.00,67.0,WeatherDisplay:10.37,2013-02-16 00:04:00,
2013-02-15 16:09:00,67.8,39.9,30.19,NNE,28,2.1,4.6,36,0.00,FEW,,0.00,255.0,WeatherDisplay:10.37,2013-02-16 00:09:00,
2013-02-15 16:15:00,67.6,39.0,30.19,NNE,28,2.3,3.5,35,0.00,SCT,,0.00,163.0,WeatherDisplay:10.37,2013-02-16 00:15:00,
2013-02-15 16:20:00,67.4,39.5,30.19,NNE,28,1.0,3.5,36,0.00,SCT,,0.00,137.0,WeatherDisplay:10.37,2013-02-16 00:20:00,
2013-02-15 16:25:00,67.0,39.1,30.19,NNE,28,1.3,2.3,36,0.00,BKN,,0.00,33.0,WeatherDisplay:10.37,2013-02-16 00:25:00,
2013-02-15 16:30:00,66.7,39.6,30.19,NNE,28,1.6,3.5,37,0.00,BKN,,0.00,32.0,WeatherDisplay:10.37,2013-02-16 00:30:00,
2013-02-15 16:35:00,66.6,38.8,30.19,NNE,28,2.6,3.5,36,0.00,BKN,,0.00,35.0,WeatherDisplay:10.37,2013-02-16 00:35:00,
2013-02-15 16:40:00,66.5,39.4,30.19,NNE,28,1.0,2.3,37,0.00,BKN,,0.00,32.0,WeatherDisplay:10.37,2013-02-16 00:40:00,
2013-02-15 16:45:00,66.4,39.3,30.19,NNE,28,0.5,3.5,37,0.00,BKN,,0.00,30.0,WeatherDisplay:10.37,2013-02-16 00:45:00,
2013-02-15 16:50:00,66.2,39.1,30.18,NNE,28,0.1,2.3,37,0.00,BKN,,0.00,26.0,WeatherDisplay:10.37,2013-02-16 00:50:00,
2013-02-15 16:55:00,65.9,38.9,30.18,NNE,28,0.0,0.0,37,0.00,BKN,,0.00,26.0,WeatherDisplay:10.37,2013-02-16 00:55:00,
2013-02-15 17:00:00,65.5,39.2,30.19,NNE,28,0.0,0.0,38,0.00,BKN,,0.00,25.0,WeatherDisplay:10.37,2013-02-16 01:00:00,
2013-02-15 17:05:00,65.1,40.8,30.19,NNE,28,0.0,0.0,41,0.00,BKN,,0.00,21.0,WeatherDisplay:10.37,2013-02-16 01:05:00,
2013-02-15 17:10:00,64.0,41.0,30.19,NNE,28,0.0,0.0,43,0.00,BKN,,0.00,19.0,WeatherDisplay:10.37,2013-02-16 01:10:00,
2013-02-15 17:15:00,63.2,40.3,30.18,NNE,28,0.0,0.0,43,0.00,BKN,,0.00,18.0,WeatherDisplay:10.37,2013-02-16 01:15:00,
2013-02-15 17:20:00,62.4,41.3,30.18,NNE,28,0.0,0.0,46,0.00,BKN,,0.00,16.0,WeatherDisplay:10.37,2013-02-16 01:20:00,
2013-02-15 17:25:00,61.0,42.2,30.18,NNE,28,0.0,0.0,50,0.00,BKN,,0.00,14.0,WeatherDisplay:10.37,2013-02-16 01:25:00,
2013-02-15 17:30:00,60.1,41.9,30.18,NNE,28,0.0,0.0,51,0.00,BKN,,0.00,12.0,WeatherDisplay:10.37,2013-02-16 01:30:00,
2013-02-15 17:35:00,59.9,41.7,30.19,NNE,28,0.0,0.0,51,0.00,BKN,,0.00,11.0,WeatherDisplay:10.37,2013-02-16 01:35:00,
2013-02-15 17:40:00,59.7,41.5,30.18,NNE,28,0.0,0.0,51,0.00,BKN,,0.00,9.0,WeatherDisplay:10.37,2013-02-16 01:40:00,
2013-02-15 17:45:00,59.5,41.3,30.18,NNE,28,0.1,0.0,51,0.00,BKN,,0.00,5.0,WeatherDisplay:10.37,2013-02-16 01:45:00,
2013-02-15 17:50:00,59.3,41.2,30.18,NNE,28,0.0,0.0,51,0.00,,,0.00,0.0,WeatherDisplay:10.37,2013-02-16 01:50:00,
2013-02-15 17:55:00,58.5,41.4,30.18,NNE,28,0.0,0.0,53,0.00,,,0.00,0.0,WeatherDisplay:10.37,2013-02-16 01:55:00,
2013-02-15 18:00:00,58.6,41.0,30.18,NNE,28,0.1,0.0,52,0.00,,,0.00,0.0,WeatherDisplay:10.37,2013-02-16 02:00:00,
2013-02-15 18:05:00,58.3,40.7,30.18,NNE,28,0.0,0.0,52,0.00,,,0.00,0.0,WeatherDisplay:10.37,2013-02-16 02:05:00,
2013-02-15 18:10:00,57.9,40.4,30.19,NNE,28,0.0,0.0,52,0.00,,,0.00,0.0,WeatherDisplay:10.37,2013-02-16 02:10:00,
2013-02-15 18:15:00,57.0,40.5,30.19,NNE,28,0.0,0.0,54,0.00,,,0.00,0.0,WeatherDisplay:10.37,2013-02-16 02:15:00,
2013-02-15 18:20:00,57.0,40.5,30.19,NNE,28,0.0,0.0,54,0.00,,,0.00,0.0,WeatherDisplay:10.37,2013-02-16 02:20:00,
2013-02-15 18:25:00,56.4,40.4,30.19,NNE,28,0.0,0.0,55,0.00,,,0.00,0.0,WeatherDisplay:10.37,2013-02-16 02:25:00,
2013-02-15 18:30:00,56.1,39.7,30.19,NNE,28,0.0,0.0,54,0.00,,,0.00,0.0,WeatherDisplay:10.37,2013-02-16 02:30:00,
2013-02-15 18:35:00,55.9,40.0,30.19,NNE,28,0.0,0.0,55,0.00,,,0.00,0.0,WeatherDisplay:10.37,2013-02-16 02:35:00,
2013-02-15 18:40:00,55.6,39.7,30.19,NNE,28,0.0,0.0,55,0.00,,,0.00,0.0,WeatherDisplay:10.37,2013-02-16 02:40:00,
2013-02-15 18:45:00,55.4,40.0,30.19,NNE,28,0.0,0.0,56,0.00,,,0.00,0.0,WeatherDisplay:10.37,2013-02-16 02:45:00,
2013-02-15 18:50:00,54.9,39.9,30.19,NNE,28,0.0,0.0,57,0.00,,,0.00,0.0,WeatherDisplay:10.37,2013-02-16 02:50:00,
2013-02-15 18:55:00,54.4,39.5,30.19,NNE,28,0.0,2.3,57,0.00,,,0.00,0.0,WeatherDisplay:10.37,2013-02-16 02:55:00,
2013-02-15 19:00:00,54.5,39.6,30.20,NNE,24,1.7,3.5,57,0.00,,,0.00,0.0,WeatherDisplay:10.37,2013-02-16 03:00:00,
2013-02-15 19:05:00,54.6,39.2,30.19,North,5,1.6,3.5,56,0.00,,,0.00,0.0,WeatherDisplay:10.37,2013-02-16 03:05:00,
2013-02-15 19:10:00,54.6,39.2,30.20,North,360,0.1,2.3,56,0.00,,,0.00,0.0,WeatherDisplay:10.37,2013-02-16 03:10:00,
2013-02-15 19:15:00,54.4,39.9,30.20,North,360,0.0,0.0,58,0.00,,,0.00,0.0,WeatherDisplay:10.37,2013-02-16 03:15:00,
2013-02-15 19:20:00,53.9,39.0,30.20,North,360,0.0,1.1,57,0.00,,,0.00,0.0,WeatherDisplay:10.37,2013-02-16 03:20:00,
2013-02-15 19:25:00,53.7,38.8,30.20,North,349,2.0,5.0,57,0.00,,,0.00,0.0,WeatherDisplay:10.37,2013-02-16 03:25:00,
2013-02-15 19:30:00,53.5,39.5,30.20,North,349,0.1,1.1,59,0.00,,,0.00,0.0,WeatherDisplay:10.37,2013-02-16 03:30:00,
2013-02-15 19:35:00,53.1,39.6,30.20,North,349,0.1,0.0,60,0.00,,,0.00,0.0,WeatherDisplay:10.37,2013-02-16 03:35:00,
2013-02-15 19:40:00,52.8,38.9,30.20,NNW,348,1.8,3.5,59,0.00,,,0.00,0.0,WeatherDisplay:10.37,2013-02-16 03:40:00,
2013-02-15 19:45:00,52.9,39.0,30.20,NNW,348,0.2,1.0,59,0.00,,,0.00,0.0,WeatherDisplay:10.37,2013-02-16 03:45:00,
2013-02-15 19:50:00,52.9,38.5,30.20,NNW,347,1.4,1.4,58,0.00,,,0.00,0.0,WeatherDisplay:10.37,2013-02-16 03:50:00,
2013-02-15 19:55:00,52.6,38.7,30.20,NW,319,2.5,0.0,59,0.00,,,0.00,0.0,WeatherDisplay:10.37,2013-02-16 03:55:00,
2013-02-15 20:00:00,52.4,38.9,30.20,NW,319,2.7,3.5,60,0.00,,,0.00,0.0,WeatherDisplay:10.37,2013-02-16 04:00:00,
2013-02-15 20:05:00,52.8,38.9,30.20,NW,319,1.5,4.6,59,0.00,,,0.00,0.0,WeatherDisplay:10.37,2013-02-16 04:05:00,
2013-02-15 20:10:00,52.5,39.0,30.20,NW,319,0.1,1.1,60,0.00,,,0.00,0.0,WeatherDisplay:10.37,2013-02-16 04:10:00,
2013-02-15 20:15:00,52.3,38.8,30.20,NW,319,0.9,3.5,60,0.00,,,0.00,0.0,WeatherDisplay:10.37,2013-02-16 04:15:00,
2013-02-15 20:20:00,51.9,38.9,30.20,NW,319,0.4,2.0,61,0.00,,,0.00,0.0,WeatherDisplay:10.37,2013-02-16 04:20:00,
2013-02-15 20:25:00,51.7,38.7,30.20,NW,318,0.8,3.5,61,0.00,,,0.00,0.0,WeatherDisplay:10.37,2013-02-16 04:25:00,
2013-02-15 20:30:00,51.9,38.9,30.20,NW,308,2.2,4.6,61,0.00,,,0.00,0.0,WeatherDisplay:10.37,2013-02-16 04:30:00,
2013-02-15 20:35:00,51.7,38.7,30.20,NW,308,0.8,2.3,61,0.00,,,0.00,0.0,WeatherDisplay:10.37,2013-02-16 04:35:00,
2013-02-15 20:40:00,51.3,38.7,30.20,NW,308,2.4,3.5,62,0.00,,,0.00,0.0,WeatherDisplay:10.37,2013-02-16 04:40:00,
2013-02-15 20:45:00,51.2,38.6,30.21,NW,308,0.1,3.5,62,0.00,,,0.00,0.0,WeatherDisplay:10.37,2013-02-16 04:45:00,
2013-02-15 20:50:00,51.6,39.0,30.21,NW,308,0.5,3.5,62,0.00,,,0.00,0.0,WeatherDisplay:10.37,2013-02-16 04:50:00,
2013-02-15 20:55:00,51.3,38.7,30.21,NW,307,0.0,0.0,62,0.00,,,0.00,0.0,WeatherDisplay:10.37,2013-02-16 04:55:00,
2013-02-15 21:00:00,50.7,38.6,30.21,NW,308,0.6,2.3,63,0.00,,,0.00,0.0,WeatherDisplay:10.37,2013-02-16 05:00:00,
2013-02-15 21:05:00,50.4,38.7,30.21,NW,308,1.1,2.3,64,0.00,,,0.00,0.0,WeatherDisplay:10.37,2013-02-16 05:05:00,
2013-02-15 21:10:00,50.2,38.5,30.21,NW,308,1.6,3.5,64,0.00,,,0.00,0.0,WeatherDisplay:10.37,2013-02-16 05:10:00,
2013-02-15 21:13:00,50.1,38.4,30.21,NW,308,0.0,0.0,64,0.00,,,0.00,0.0,WeatherDisplay:10.37,2013-02-16 05:13:00,
2013-02-15 21:16:00,50.0,38.7,30.21,NW,308,0.0,4.0,65,0.00,,,0.00,0.0,WeatherDisplay:10.37,2013-02-16 05:16:00,
2013-02-15 21:21:00,49.8,38.9,30.21,NW,308,0.3,2.3,66,0.00,,,0.00,0.0,WeatherDisplay:10.37,2013-02-16 05:21:00,
2013-02-15 21:23:00,49.9,38.6,30.21,NW,308,0.0,0.0,65,0.00,,,0.00,0.0,WeatherDisplay:10.37,2013-02-16 05:23:00,
2013-02-15 21:28:00,49.9,38.6,30.21,NW,308,0.1,2.0,65,0.00,,,0.00,0.0,WeatherDisplay:10.37,2013-02-16 05:28:00,
2013-02-15 21:33:00,49.7,38.8,30.22,NW,308,0.0,1.1,66,0.00,,,0.00,0.0,WeatherDisplay:10.37,2013-02-16 05:33:00,
2013-02-15 21:38:00,49.5,38.6,30.22,NW,308,0.3,1.1,66,0.00,,,0.00,0.0,WeatherDisplay:10.37,2013-02-16 05:38:00,
2013-02-15 21:43:00,49.6,38.7,30.22,NW,308,1.0,3.5,66,0.00,,,0.00,0.0,WeatherDisplay:10.37,2013-02-16 05:43:00,
2013-02-15 21:48:00,49.4,38.9,30.22,NW,308,0.0,0.0,67,0.00,,,0.00,0.0,WeatherDisplay:10.37,2013-02-16 05:48:00,
2013-02-15 21:53:00,49.4,38.5,30.22,NW,308,0.0,0.0,66,0.00,,,0.00,0.0,WeatherDisplay:10.37,2013-02-16 05:53:00,
2013-02-15 21:58:00,49.0,38.5,30.22,NW,308,0.3,0.0,67,0.00,,,0.00,0.0,WeatherDisplay:10.37,2013-02-16 05:58:00,
2013-02-15 22:03:00,48.7,38.6,30.22,NW,307,0.1,1.1,68,0.00,,,0.00,0.0,WeatherDisplay:10.37,2013-02-16 06:03:00,
2013-02-15 22:08:00,48.6,38.5,30.22,NW,307,0.0,1.1,68,0.00,,,0.00,0.0,WeatherDisplay:10.37,2013-02-16 06:08:00,
2013-02-15 22:13:00,48.6,38.5,30.22,NW,308,2.3,4.6,68,0.00,,,0.00,0.0,WeatherDisplay:10.37,2013-02-16 06:13:00,
2013-02-15 22:18:00,49.0,38.5,30.22,NW,308,0.1,0.0,67,0.00,,,0.00,0.0,WeatherDisplay:10.37,2013-02-16 06:18:00,
2013-02-15 22:23:00,49.3,38.4,30.22,NW,307,0.0,2.3,66,0.00,,,0.00,0.0,WeatherDisplay:10.37,2013-02-16 06:23:00,
2013-02-15 22:28:00,48.5,38.4,30.22,NW,308,0.0,0.0,68,0.00,,,0.00,0.0,WeatherDisplay:10.37,2013-02-16 06:28:00,
2013-02-15 22:33:00,48.3,38.6,30.22,NW,307,0.6,2.3,69,0.00,,,0.00,0.0,WeatherDisplay:10.37,2013-02-16 06:33:00,
2013-02-15 22:38:00,48.4,38.7,30.22,NW,307,0.4,0.0,69,0.00,,,0.00,0.0,WeatherDisplay:10.37,2013-02-16 06:38:00,
2013-02-15 22:43:00,48.6,38.5,30.22,NW,308,0.0,2.3,68,0.00,,,0.00,0.0,WeatherDisplay:10.37,2013-02-16 06:43:00,
2013-02-15 22:48:00,48.3,38.6,30.22,NW,308,0.0,0.0,69,0.00,,,0.00,0.0,WeatherDisplay:10.37,2013-02-16 06:48:00,
2013-02-15 22:53:00,48.3,38.6,30.22,NW,307,0.0,0.0,69,0.00,,,0.00,0.0,WeatherDisplay:10.37,2013-02-16 06:53:00,
2013-02-15 22:58:00,48.2,38.5,30.22,NW,308,0.0,0.0,69,0.00,,,0.00,0.0,WeatherDisplay:10.37,2013-02-16 06:58:00,
2013-02-15 23:03:00,47.9,38.6,30.22,NW,307,0.0,1.1,70,0.00,,,0.00,0.0,WeatherDisplay:10.37,2013-02-16 07:03:00,
2013-02-15 23:08:00,47.4,38.1,30.22,NW,308,0.2,0.0,70,0.00,,,0.00,0.0,WeatherDisplay:10.37,2013-02-16 07:08:00,
2013-02-15 23:13:00,47.4,38.5,30.21,NW,308,0.0,0.0,71,0.00,,,0.00,0.0,WeatherDisplay:10.37,2013-02-16 07:13:00,
2013-02-15 23:18:00,47.0,38.4,30.22,NW,307,0.1,1.1,72,0.00,,,0.00,0.0,WeatherDisplay:10.37,2013-02-16 07:18:00,
2013-02-15 23:23:00,46.8,38.2,30.22,NW,308,0.0,0.0,72,0.00,,,0.00,0.0,WeatherDisplay:10.37,2013-02-16 07:23:00,
2013-02-15 23:28:00,46.7,38.1,30.22,NW,308,0.0,0.0,72,0.00,,,0.00,0.0,WeatherDisplay:10.37,2013-02-16 07:28:00,
2013-02-15 23:33:00,46.6,38.1,30.22,NW,308,0.0,0.0,72,0.00,,,0.00,0.0,WeatherDisplay:10.37,2013-02-16 07:33:00,
2013-02-15 23:38:00,46.5,38.3,30.21,NW,308,0.1,3.5,73,0.00,,,0.00,0.0,WeatherDisplay:10.37,2013-02-16 07:38:00,
2013-02-15 23:43:00,46.2,38.0,30.22,NW,308,0.7,3.5,73,0.00,,,0.00,0.0,WeatherDisplay:10.37,2013-02-16 07:43:00,
2013-02-15 23:48:00,46.1,38.3,30.21,NW,308,0.0,0.0,74,0.00,,,0.00,0.0,WeatherDisplay:10.37,2013-02-16 07:48:00,
2013-02-15 23:53:00,46.1,38.3,30.22,NW,307,0.0,2.3,74,0.00,,,0.00,0.0,WeatherDisplay:10.37,2013-02-16 07:53:00,
2013-02-15 23:58:00,45.9,38.4,30.21,NW,307,0.0,0.0,75,0.00,,,0.00,0.0,WeatherDisplay:10.37,2013-02-16 07:58:00,